British Robin — MGSH7 — position and weather

sailwx.info

Track history (hours):
 
Tides and Currents Weather Stations Pressure Air Temp Water Temp Dewpoint Dewpoint Depression Visibility Wind Speed Wind Dir Waves Ship Positions

British Robin

Last reported at 2015-Apr-18 00:34 UTC. Time now 2015-Apr-18 13:17 UTC.
Position N 26°15' W 079°26'.

Length 251.5 m; beam 43.9 m; draft 15 m.

Type: Tanker. MMSI: 232156000.

Date/timePositionNaut miles runAvg speedWind from/ knotsBaromVisibWave heightAir tempDewpointWater temp
2015-Apr-18 00:34N 26°15' W 079°26'1513.8
2015-Apr-17 23:29N 25°60' W 079°28'1314.0
2015-Apr-17 22:33N 25°47' W 079°29'1414.1
2015-Apr-17 21:33N 25°33' W 079°30'  
2015-Apr-14 19:20N 29°06' W 094°25'2210.1
2015-Apr-14 17:13N 29°21' W 094°43'6 8.7
2015-Apr-14 16:33N 29°23' W 094°49'10 9.8
2015-Apr-14 15:34N 29°32' W 094°54'10 9.6
2015-Apr-14 14:34N 29°41' W 094°59'7 6.6
2015-Apr-14 13:34N 29°45' W 095°04'3 0.6
2015-Apr-14 08:20N 29°44' W 095°07'0 0.0
2015-Apr-14 07:14N 29°44' W 095°07'0 0.0
2015-Apr-14 05:20N 29°44' W 095°07'0 0.0
2015-Apr-14 03:23N 29°44' W 095°07'0 0.0
2015-Apr-14 02:23N 29°44' W 095°07'0 0.0
2015-Apr-14 01:14N 29°44' W 095°07'0 0.0
2015-Apr-14 00:26N 29°44' W 095°07'0 0.0
2015-Apr-13 23:26N 29°44' W 095°07'0 0.0
2015-Apr-13 22:29N 29°44' W 095°07'0 0.0
2015-Apr-13 21:19N 29°44' W 095°07'0 0.0
2015-Apr-13 20:25N 29°44' W 095°07'0 0.0
2015-Apr-13 19:28N 29°44' W 095°07'0 0.0
2015-Apr-13 17:28N 29°44' W 095°07'0 0.0
2015-Apr-13 16:28N 29°44' W 095°07'0 0.0
2015-Apr-13 15:19N 29°44' W 095°07'0 0.0
2015-Apr-13 14:22N 29°44' W 095°07'0 0.0
2015-Apr-13 13:28N 29°44' W 095°07'0 0.0
2015-Apr-13 10:13N 29°44' W 095°07'0 0.0
2015-Apr-13 09:22N 29°44' W 095°07'0 0.0
2015-Apr-13 07:31N 29°44' W 095°07'0 0.0
2015-Apr-13 06:25N 29°44' W 095°07'0 0.0
2015-Apr-13 03:19N 29°44' W 095°07'0 0.0
2015-Apr-13 00:16N 29°44' W 095°07'0 0.0
2015-Apr-12 23:13N 29°44' W 095°07'0 0.0
2015-Apr-12 20:07N 29°44' W 095°07'0 0.0
2015-Apr-12 19:31N 29°44' W 095°07'0 0.0
2015-Apr-12 18:25N 29°44' W 095°07'0 0.0
2015-Apr-12 17:10N 29°44' W 095°07'0 0.0
2015-Apr-12 16:28N 29°44' W 095°07'0 0.0
2015-Apr-12 15:19N 29°44' W 095°07'0 0.0
2015-Apr-12 14:31N 29°44' W 095°07'0 0.0
2015-Apr-12 10:18N 29°44' W 095°07'0 0.0
2015-Apr-12 09:03N 29°44' W 095°07'0 0.0
2015-Apr-12 06:24N 29°44' W 095°07'0 0.0
2015-Apr-12 05:33N 29°44' W 095°07'0 0.0
2015-Apr-12 04:33N 29°44' W 095°07'0 0.0
2015-Apr-12 03:30N 29°44' W 095°07'0 0.0
2015-Apr-12 02:33N 29°44' W 095°07'0 0.0
2015-Apr-12 01:33N 29°44' W 095°07'0 0.0
2015-Apr-12 00:30N 29°44' W 095°07'0 0.0
2015-Apr-11 23:24N 29°44' W 095°07'0 0.0
2015-Apr-11 22:33N 29°44' W 095°07'0 0.2
2015-Apr-11 21:34N 29°44' W 095°07'5 5.2
2015-Apr-11 20:34N 29°44' W 095°01'10 9.8
2015-Apr-11 19:33N 29°35' W 094°56'1313.0
2015-Apr-11 18:33N 29°23' W 094°49'21 0.6
2015-Apr-10 05:00N 29°06' W 094°36'   190 / 81014.0 5.4 0.522.018.9
Track history (hours):
 
Tides and Currents Weather Stations Pressure Air Temp Water Temp Dewpoint Dewpoint Depression Visibility Wind Speed Wind Dir Waves Ship Positions

British Robin

Last reported at 2015-Apr-18 00:34 UTC. Time now 2015-Apr-18 13:17 UTC.
Position N 26°15' W 079°26'.

Length 251.5 m; beam 43.9 m; draft 15 m.

Type: Tanker. MMSI: 232156000.

Date/timePositionNaut miles runAvg speedWind from/ knotsBaromVisibWave heightAir tempDewpointWater temp
2015-Apr-18 00:34N 26°15' W 079°26'1513.8
2015-Apr-17 23:29N 25°60' W 079°28'1314.0
2015-Apr-17 22:33N 25°47' W 079°29'1414.1
2015-Apr-17 21:33N 25°33' W 079°30'  
2015-Apr-14 19:20N 29°06' W 094°25'2210.1
2015-Apr-14 17:13N 29°21' W 094°43'6 8.7
2015-Apr-14 16:33N 29°23' W 094°49'10 9.8
2015-Apr-14 15:34N 29°32' W 094°54'10 9.6
2015-Apr-14 14:34N 29°41' W 094°59'7 6.6
2015-Apr-14 13:34N 29°45' W 095°04'3 0.6
2015-Apr-14 08:20N 29°44' W 095°07'0 0.0
2015-Apr-14 07:14N 29°44' W 095°07'0 0.0
2015-Apr-14 05:20N 29°44' W 095°07'0 0.0
2015-Apr-14 03:23N 29°44' W 095°07'0 0.0
2015-Apr-14 02:23N 29°44' W 095°07'0 0.0
2015-Apr-14 01:14N 29°44' W 095°07'0 0.0
2015-Apr-14 00:26N 29°44' W 095°07'0 0.0
2015-Apr-13 23:26N 29°44' W 095°07'0 0.0
2015-Apr-13 22:29N 29°44' W 095°07'0 0.0
2015-Apr-13 21:19N 29°44' W 095°07'0 0.0
2015-Apr-13 20:25N 29°44' W 095°07'0 0.0
2015-Apr-13 19:28N 29°44' W 095°07'0 0.0
2015-Apr-13 17:28N 29°44' W 095°07'0 0.0
2015-Apr-13 16:28N 29°44' W 095°07'0 0.0
2015-Apr-13 15:19N 29°44' W 095°07'0 0.0
2015-Apr-13 14:22N 29°44' W 095°07'0 0.0
2015-Apr-13 13:28N 29°44' W 095°07'0 0.0
2015-Apr-13 10:13N 29°44' W 095°07'0 0.0
2015-Apr-13 09:22N 29°44' W 095°07'0 0.0
2015-Apr-13 07:31N 29°44' W 095°07'0 0.0
2015-Apr-13 06:25N 29°44' W 095°07'0 0.0
2015-Apr-13 03:19N 29°44' W 095°07'0 0.0
2015-Apr-13 00:16N 29°44' W 095°07'0 0.0
2015-Apr-12 23:13N 29°44' W 095°07'0 0.0
2015-Apr-12 20:07N 29°44' W 095°07'0 0.0
2015-Apr-12 19:31N 29°44' W 095°07'0 0.0
2015-Apr-12 18:25N 29°44' W 095°07'0 0.0
2015-Apr-12 17:10N 29°44' W 095°07'0 0.0
2015-Apr-12 16:28N 29°44' W 095°07'0 0.0
2015-Apr-12 15:19N 29°44' W 095°07'0 0.0
2015-Apr-12 14:31N 29°44' W 095°07'0 0.0
2015-Apr-12 10:18N 29°44' W 095°07'0 0.0
2015-Apr-12 09:03N 29°44' W 095°07'0 0.0
2015-Apr-12 06:24N 29°44' W 095°07'0 0.0
2015-Apr-12 05:33N 29°44' W 095°07'0 0.0
2015-Apr-12 04:33N 29°44' W 095°07'0 0.0
2015-Apr-12 03:30N 29°44' W 095°07'0 0.0
2015-Apr-12 02:33N 29°44' W 095°07'0 0.0
2015-Apr-12 01:33N 29°44' W 095°07'0 0.0
2015-Apr-12 00:30N 29°44' W 095°07'0 0.0
2015-Apr-11 23:24N 29°44' W 095°07'0 0.0
2015-Apr-11 22:33N 29°44' W 095°07'0 0.2
2015-Apr-11 21:34N 29°44' W 095°07'5 5.2
2015-Apr-11 20:34N 29°44' W 095°01'10 9.8
2015-Apr-11 19:33N 29°35' W 094°56'1313.0
2015-Apr-11 18:33N 29°23' W 094°49'21 0.6
2015-Apr-10 05:00N 29°06' W 094°36'   190 / 81014.0 5.4 0.522.018.9

Dump ship's entire track history